Time;durP1;ratioP1;P1;durP2;ratioP2;P2;SDS_P1;SDS_P2;PMS_P1;PMS_P2;Temp;Humidity;BMP_temperature;BMP_pressure;BME280_temperature;BME280_humidity;BME280_pressure;Samples;Min_cycle;Max_cycle;Signal;HPM_P1;HPM_P2
2024/01/05 00:01:09;;;;;;;8.73;2.50;;;9.50;99.90;;;;;;5051222;28;20311;-90
2024/01/05 00:03:34;;;;;;;6.15;2.40;;;9.50;99.90;;;;;;5052141;28;20060;-90
2024/01/05 00:06:00;;;;;;;3.92;2.03;;;9.50;99.90;;;;;;5051281;28;20021;-90
2024/01/05 00:08:26;;;;;;;9.73;2.47;;;9.50;99.90;;;;;;5038382;28;20029;-90
2024/01/05 00:10:51;;;;;;;7.05;2.70;;;9.50;99.90;;;;;;5047458;28;20533;-91
2024/01/05 00:13:17;;;;;;;9.85;2.53;;;9.50;99.90;;;;;;5039324;28;20502;-91
2024/01/05 00:15:42;;;;;;;13.52;2.30;;;9.50;99.90;;;;;;5034403;28;20029;-89
2024/01/05 00:18:08;;;;;;;6.15;2.00;;;9.50;99.90;;;;;;5041871;28;20064;-90
2024/01/05 00:20:34;;;;;;;6.28;2.00;;;9.50;99.90;;;;;;5043265;28;20063;-90
2024/01/05 00:22:59;;;;;;;5.15;2.13;;;9.50;99.90;;;;;;5038466;28;20025;-90
2024/01/05 00:25:25;;;;;;;3.95;2.10;;;9.50;99.90;;;;;;5052421;28;20032;-90
2024/01/05 00:27:52;;;;;;;5.68;2.08;;;9.50;99.90;;;;;;5048415;28;20025;-89
2024/01/05 00:30:18;;;;;;;8.00;2.38;;;9.50;99.90;;;;;;5054549;28;20036;-89
2024/01/05 00:32:44;;;;;;;7.47;2.20;;;9.50;99.90;;;;;;5067528;28;20636;-90
2024/01/05 00:35:10;;;;;;;6.13;2.03;;;9.50;99.90;;;;;;5050814;28;20025;-90
2024/01/05 00:37:35;;;;;;;7.95;2.60;;;9.40;99.90;;;;;;5038577;28;20675;-89
2024/01/05 00:40:02;;;;;;;6.93;2.60;;;9.50;99.90;;;;;;5044534;28;20017;-92
2024/01/05 00:42:27;;;;;;;7.97;3.03;;;9.50;99.90;;;;;;5040569;28;20021;-89
2024/01/05 00:44:53;;;;;;;7.13;2.33;;;9.50;99.90;;;;;;5050785;28;20507;-91
2024/01/05 00:47:18;;;;;;;8.05;2.55;;;9.40;99.90;;;;;;5038930;28;20030;-90
2024/01/05 00:49:44;;;;;;;12.02;2.83;;;9.50;99.90;;;;;;5042328;28;20075;-90
2024/01/05 00:52:09;;;;;;;9.05;2.97;;;9.40;99.90;;;;;;5049850;28;20025;-90
2024/01/05 00:54:35;;;;;;;6.25;2.40;;;9.40;99.90;;;;;;5040566;28;20083;-90
2024/01/05 00:57:00;;;;;;;7.28;2.65;;;9.50;99.90;;;;;;5039995;28;20041;-90
2024/01/05 00:59:26;;;;;;;5.30;2.58;;;9.50;99.90;;;;;;5039636;28;20037;-91
2024/01/05 01:01:53;;;;;;;5.55;2.63;;;9.40;99.90;;;;;;5049998;28;20165;-91
2024/01/05 01:04:19;;;;;;;9.90;2.88;;;9.40;99.90;;;;;;5043332;28;20013;-89
2024/01/05 01:06:44;;;;;;;10.07;2.92;;;9.40;99.90;;;;;;5055740;28;20024;-90
2024/01/05 01:09:10;;;;;;;7.95;2.63;;;9.40;99.90;;;;;;5055744;28;20098;-90
2024/01/05 01:11:36;;;;;;;5.03;2.40;;;9.40;99.90;;;;;;5054509;28;20445;-90
2024/01/05 01:14:01;;;;;;;6.10;2.20;;;9.40;99.90;;;;;;5046161;28;20787;-91
2024/01/05 01:16:27;;;;;;;8.85;3.00;;;9.40;99.90;;;;;;5043269;28;20021;-90
2024/01/05 01:18:53;;;;;;;8.68;2.83;;;9.40;99.90;;;;;;5052076;28;20107;-90
2024/01/05 01:21:18;;;;;;;9.55;3.17;;;9.40;99.90;;;;;;5043065;28;20395;-89
2024/01/05 01:23:44;;;;;;;10.30;2.78;;;9.40;99.90;;;;;;5035621;28;20479;-90
2024/01/05 01:26:10;;;;;;;9.43;2.58;;;9.40;99.90;;;;;;5057602;28;20029;-91
2024/01/05 01:28:35;;;;;;;11.35;2.80;;;9.40;99.90;;;;;;5058329;28;20028;-89
2024/01/05 01:31:01;;;;;;;7.93;3.03;;;9.40;99.90;;;;;;5034680;28;20041;-90
2024/01/05 01:33:26;;;;;;;5.18;2.83;;;9.40;99.90;;;;;;5048137;28;20549;-90
2024/01/05 01:35:52;;;;;;;9.98;2.50;;;9.40;99.90;;;;;;5034794;28;20479;-90
2024/01/05 01:38:17;;;;;;;6.97;2.53;;;9.40;99.90;;;;;;5047885;28;20052;-90
2024/01/05 01:40:47;;;;;;;9.25;3.17;;;9.40;99.90;;;;;;5054092;28;20028;-91
2024/01/05 01:43:21;;;;;;;8.15;2.45;;;9.40;99.90;;;;;;5045694;28;20040;-91
2024/01/05 01:45:47;;;;;;;5.72;2.60;;;9.40;99.90;;;;;;5054111;28;20056;-90
2024/01/05 01:48:14;;;;;;;8.35;2.55;;;9.40;99.90;;;;;;5046499;28;20033;-90
2024/01/05 01:50:40;;;;;;;6.72;2.80;;;9.40;99.90;;;;;;5036908;28;20033;-90
2024/01/05 01:53:06;;;;;;;5.68;2.63;;;9.40;99.90;;;;;;5044132;28;20099;-90
2024/01/05 01:55:31;;;;;;;4.78;2.33;;;9.40;99.90;;;;;;5050127;28;20032;-90
2024/01/05 01:57:57;;;;;;;5.05;2.47;;;9.40;99.90;;;;;;5054769;28;20072;-90
2024/01/05 02:00:22;;;;;;;3.85;2.58;;;9.40;99.90;;;;;;5045532;28;20017;-89
2024/01/05 02:02:48;;;;;;;7.60;2.63;;;9.40;99.90;;;;;;5042453;28;20022;-91
2024/01/05 02:05:14;;;;;;;4.50;2.03;;;9.40;99.90;;;;;;5050975;28;20021;-91
2024/01/05 02:07:42;;;;;;;6.90;2.85;;;9.40;99.90;;;;;;5034925;28;20025;-90
2024/01/05 02:10:08;;;;;;;4.10;2.60;;;9.40;99.90;;;;;;5045698;28;20491;-90
2024/01/05 02:12:33;;;;;;;6.75;2.42;;;9.40;99.90;;;;;;5040940;28;20029;-90
2024/01/05 02:14:59;;;;;;;2.28;1.95;;;9.40;99.90;;;;;;5036947;28;20021;-90
2024/01/05 02:17:32;;;;;;;5.28;2.00;;;9.40;99.90;;;;;;5049780;28;20022;-89
2024/01/05 02:19:59;;;;;;;6.78;2.67;;;9.40;99.90;;;;;;5034326;28;20097;-90
2024/01/05 02:22:28;;;;;;;4.60;2.10;;;9.40;99.90;;;;;;5053496;28;20020;-90
2024/01/05 02:24:54;;;;;;;6.43;2.40;;;9.40;99.90;;;;;;5055537;28;20030;-90
2024/01/05 02:27:20;;;;;;;3.80;2.30;;;9.40;99.90;;;;;;5033258;28;20036;-90
2024/01/05 02:29:45;;;;;;;4.38;2.15;;;9.40;99.90;;;;;;5043018;28;20025;-89
2024/01/05 02:32:11;;;;;;;3.40;2.10;;;9.40;99.90;;;;;;5053808;28;20103;-89
2024/01/05 02:34:37;;;;;;;7.13;2.22;;;9.40;99.90;;;;;;5046982;28;20048;-90
2024/01/05 02:37:02;;;;;;;14.13;2.40;;;9.40;99.90;;;;;;5054851;28;20051;-90
2024/01/05 02:39:28;;;;;;;7.13;2.03;;;9.40;99.90;;;;;;5048332;28;20736;-91
2024/01/05 02:41:54;;;;;;;6.63;2.20;;;9.40;99.90;;;;;;5042891;28;20013;-90
2024/01/05 02:44:19;;;;;;;3.97;2.33;;;9.40;99.90;;;;;;5052980;28;20025;-90
2024/01/05 02:46:45;;;;;;;4.60;2.50;;;9.40;99.90;;;;;;5053001;28;20029;-91
2024/01/05 02:49:10;;;;;;;3.60;2.03;;;9.40;99.90;;;;;;5054173;28;20025;-91
2024/01/05 02:51:36;;;;;;;3.88;2.53;;;9.40;99.90;;;;;;5047190;28;20503;-89
2024/01/05 02:54:01;;;;;;;5.07;2.08;;;9.40;99.90;;;;;;5043991;28;21313;-91
2024/01/05 02:56:27;;;;;;;4.60;1.85;;;9.40;99.90;;;;;;5054047;28;20086;-90
2024/01/05 02:58:53;;;;;;;5.72;2.60;;;9.40;99.90;;;;;;5054219;28;20048;-91
2024/01/05 03:01:18;;;;;;;7.72;1.90;;;9.40;99.90;;;;;;5054280;28;20020;-91
2024/01/05 03:03:46;;;;;;;6.68;2.00;;;9.40;99.90;;;;;;5052987;28;20029;-90
2024/01/05 03:06:16;;;;;;;6.07;2.60;;;9.40;99.90;;;;;;5052702;28;20035;-90
2024/01/05 03:08:42;;;;;;;5.88;2.30;;;9.40;99.90;;;;;;5048087;28;20037;-91
2024/01/05 03:11:07;;;;;;;11.82;2.80;;;9.40;99.90;;;;;;5047921;28;20558;-90
2024/01/05 03:13:33;;;;;;;5.70;2.03;;;9.40;99.90;;;;;;5040324;28;20032;-91
2024/01/05 03:15:59;;;;;;;6.45;2.67;;;9.40;99.90;;;;;;5044535;28;20051;-91
2024/01/05 03:18:24;;;;;;;5.95;2.88;;;9.40;99.90;;;;;;5047754;28;20025;-90
2024/01/05 03:20:50;;;;;;;5.55;2.33;;;9.40;99.90;;;;;;5053625;28;20025;-90
2024/01/05 03:23:15;;;;;;;5.10;2.53;;;9.40;99.90;;;;;;5053814;28;20037;-91
2024/01/05 03:25:41;;;;;;;7.85;2.95;;;9.40;99.90;;;;;;5052262;28;20024;-91
2024/01/05 03:28:07;;;;;;;3.85;2.33;;;9.40;99.90;;;;;;5051768;28;20021;-90
2024/01/05 03:30:32;;;;;;;6.00;2.40;;;9.40;99.90;;;;;;5049317;28;20094;-91
2024/01/05 03:32:58;;;;;;;8.10;2.72;;;9.30;99.90;;;;;;5046460;28;20021;-89
2024/01/05 03:35:24;;;;;;;6.60;2.42;;;9.40;99.90;;;;;;5047681;28;20202;-92
2024/01/05 03:37:49;;;;;;;7.30;2.60;;;9.40;99.90;;;;;;5037435;28;20025;-90
2024/01/05 03:40:15;;;;;;;5.93;2.38;;;9.40;99.90;;;;;;5040156;28;20025;-90
2024/01/05 03:42:41;;;;;;;7.75;2.80;;;9.40;99.90;;;;;;5033608;28;20096;-90
2024/01/05 03:45:07;;;;;;;7.18;2.40;;;9.40;99.90;;;;;;5048212;28;20502;-90
2024/01/05 03:47:33;;;;;;;6.00;2.45;;;9.40;99.90;;;;;;5039388;28;20021;-90
2024/01/05 03:49:58;;;;;;;4.45;2.45;;;9.40;99.90;;;;;;5051363;28;20032;-90
2024/01/05 03:52:24;;;;;;;6.60;2.95;;;9.40;99.90;;;;;;5035877;28;20075;-89
2024/01/05 03:54:49;;;;;;;7.68;2.50;;;9.40;99.90;;;;;;5051110;28;20025;-90
2024/01/05 03:57:15;;;;;;;5.10;2.30;;;9.40;99.90;;;;;;5033180;28;20071;-90
2024/01/05 03:59:42;;;;;;;12.02;3.13;;;9.40;99.90;;;;;;5043208;28;20025;-90
2024/01/05 04:02:08;;;;;;;8.20;3.03;;;9.40;99.90;;;;;;5045109;28;20571;-91
2024/01/05 04:04:34;;;;;;;11.77;3.13;;;9.40;99.90;;;;;;5032158;28;20025;-90
2024/01/05 04:06:59;;;;;;;11.55;3.40;;;9.30;99.90;;;;;;5031549;28;20032;-91
2024/01/05 04:09:25;;;;;;;7.85;3.05;;;9.30;99.90;;;;;;5043301;28;20099;-90
2024/01/05 04:11:51;;;;;;;7.78;2.70;;;9.30;99.90;;;;;;5042310;28;20044;-90
2024/01/05 04:14:17;;;;;;;5.20;2.35;;;9.30;99.90;;;;;;5048022;28;20107;-90
2024/01/05 04:16:42;;;;;;;9.07;3.55;;;9.30;99.90;;;;;;5034224;28;20065;-90
2024/01/05 04:19:09;;;;;;;4.72;3.03;;;9.30;99.90;;;;;;5050610;28;20067;-89
2024/01/05 04:21:34;;;;;;;11.65;3.10;;;9.30;99.90;;;;;;5037483;28;20018;-91
2024/01/05 04:24:01;;;;;;;5.25;2.78;;;9.30;99.90;;;;;;5039405;28;20139;-91
2024/01/05 04:26:27;;;;;;;6.10;2.72;;;9.30;99.90;;;;;;5031730;28;20109;-91
2024/01/05 04:28:53;;;;;;;6.50;3.33;;;9.30;99.90;;;;;;5039674;28;20443;-90
2024/01/05 04:31:18;;;;;;;8.25;3.35;;;9.30;99.90;;;;;;5051384;28;20116;-90
2024/01/05 04:33:44;;;;;;;4.55;2.95;;;9.30;99.90;;;;;;5038126;28;20036;-89
2024/01/05 04:36:10;;;;;;;9.65;3.05;;;9.30;99.90;;;;;;5042665;28;20029;-92
2024/01/05 04:38:35;;;;;;;4.95;2.85;;;9.30;99.90;;;;;;5043541;28;20022;-90
2024/01/05 04:41:02;;;;;;;8.20;2.83;;;9.30;99.90;;;;;;5040417;28;20087;-90
2024/01/05 04:43:27;;;;;;;6.90;3.00;;;9.30;99.90;;;;;;5058102;28;20024;-91
2024/01/05 04:45:53;;;;;;;9.05;3.42;;;9.30;99.90;;;;;;5049721;28;20021;-89
2024/01/05 04:48:18;;;;;;;6.53;3.33;;;9.40;99.90;;;;;;5041647;28;20093;-91
2024/01/05 04:50:44;;;;;;;4.85;3.00;;;9.30;99.90;;;;;;5052521;28;20092;-90
2024/01/05 04:53:10;;;;;;;5.82;2.95;;;9.30;99.90;;;;;;5051249;28;20029;-90
2024/01/05 04:55:36;;;;;;;7.90;3.83;;;9.30;99.90;;;;;;5040606;28;20055;-90
2024/01/05 04:58:02;;;;;;;10.55;3.78;;;9.30;99.90;;;;;;5039041;28;20387;-90
2024/01/05 05:00:27;;;;;;;11.05;3.50;;;9.30;99.90;;;;;;5049413;28;20578;-91
2024/01/05 05:02:53;;;;;;;10.95;3.30;;;9.30;99.90;;;;;;5059225;28;20024;-90
2024/01/05 05:05:19;;;;;;;6.03;3.47;;;9.30;99.90;;;;;;5051570;28;20091;-90
2024/01/05 05:07:44;;;;;;;12.07;3.47;;;9.30;99.90;;;;;;5058996;28;20057;-91
2024/01/05 05:10:10;;;;;;;4.40;3.22;;;9.30;99.90;;;;;;5038866;28;20157;-91
2024/01/05 05:12:35;;;;;;;9.02;3.63;;;9.30;99.90;;;;;;5050109;28;20116;-90
2024/01/05 05:15:01;;;;;;;9.95;4.50;;;9.30;99.90;;;;;;5037790;28;20026;-90
2024/01/05 05:17:27;;;;;;;11.40;3.78;;;9.30;99.90;;;;;;5046420;28;20055;-91
2024/01/05 05:19:54;;;;;;;10.18;3.80;;;9.30;99.90;;;;;;5059224;28;20379;-90
2024/01/05 05:22:21;;;;;;;7.05;3.95;;;9.30;99.90;;;;;;5038920;28;20014;-91
2024/01/05 05:24:46;;;;;;;11.50;3.60;;;9.30;99.90;;;;;;5045577;28;20064;-91
2024/01/05 05:27:12;;;;;;;8.07;3.80;;;9.30;99.90;;;;;;5052171;28;20060;-91
2024/01/05 05:29:37;;;;;;;7.38;4.20;;;9.30;99.90;;;;;;5043934;28;20032;-91
2024/01/05 05:32:03;;;;;;;9.18;3.95;;;9.30;99.90;;;;;;5048323;28;20044;-90
2024/01/05 05:34:29;;;;;;;6.75;4.35;;;9.30;99.90;;;;;;5043974;28;20032;-90
2024/01/05 05:36:54;;;;;;;7.28;4.07;;;9.30;99.90;;;;;;5051681;28;20033;-90
2024/01/05 05:39:20;;;;;;;6.90;3.70;;;9.30;99.90;;;;;;5051788;28;20082;-91
2024/01/05 05:41:45;;;;;;;8.48;3.10;;;9.30;99.90;;;;;;5046540;28;20009;-90
2024/01/05 05:44:11;;;;;;;8.45;3.97;;;9.30;99.90;;;;;;5046491;28;20071;-91
2024/01/05 05:46:36;;;;;;;8.57;4.32;;;9.30;99.90;;;;;;5039235;28;20084;-91
2024/01/05 05:49:02;;;;;;;8.68;4.13;;;9.30;99.90;;;;;;5041724;28;20048;-91
2024/01/05 05:51:28;;;;;;;7.97;3.90;;;9.30;99.90;;;;;;5039336;28;20021;-91
2024/01/05 05:53:54;;;;;;;5.88;3.22;;;9.30;99.90;;;;;;5042342;28;20021;-90
2024/01/05 05:56:19;;;;;;;7.32;3.35;;;9.30;99.90;;;;;;5046140;28;20416;-91
2024/01/05 05:58:45;;;;;;;7.63;3.72;;;9.30;99.90;;;;;;5055288;28;20038;-91
2024/01/05 06:01:13;;;;;;;6.18;3.38;;;9.30;99.90;;;;;;5048162;28;20060;-89
2024/01/05 06:03:39;;;;;;;5.47;3.63;;;9.30;99.90;;;;;;5048387;28;20048;-90
2024/01/05 06:06:14;;;;;;;7.50;3.35;;;9.30;99.90;;;;;;5054027;28;20045;-90
2024/01/05 06:08:40;;;;;;;8.13;3.28;;;9.30;99.90;;;;;;5047723;28;20024;-90
2024/01/05 06:11:05;;;;;;;7.18;3.47;;;9.30;99.90;;;;;;5034049;28;20040;-90
2024/01/05 06:13:31;;;;;;;11.73;3.45;;;9.30;99.90;;;;;;5037325;28;20089;-90
2024/01/05 06:15:56;;;;;;;11.48;3.55;;;9.30;99.90;;;;;;5047632;28;20035;-89
2024/01/05 06:18:22;;;;;;;5.30;3.33;;;9.30;99.90;;;;;;5045092;28;20029;-89
2024/01/05 06:20:48;;;;;;;8.77;3.63;;;9.30;99.90;;;;;;5053726;28;20600;-91
2024/01/05 06:23:13;;;;;;;7.10;3.47;;;9.30;99.90;;;;;;5053826;28;20056;-91
2024/01/05 06:25:39;;;;;;;10.48;4.13;;;9.30;99.90;;;;;;5049414;28;20041;-91
2024/01/05 06:28:04;;;;;;;10.50;3.70;;;9.30;99.90;;;;;;5054214;28;20025;-90
2024/01/05 06:30:30;;;;;;;7.03;4.32;;;9.30;99.90;;;;;;5046004;28;20041;-91
2024/01/05 06:32:55;;;;;;;15.40;3.78;;;9.30;99.90;;;;;;5038422;28;20079;-90
2024/01/05 06:35:21;;;;;;;8.05;3.72;;;9.30;99.90;;;;;;5035293;28;20093;-90
2024/01/05 06:37:46;;;;;;;6.65;3.60;;;9.30;99.90;;;;;;5050953;28;20474;-90
2024/01/05 06:40:12;;;;;;;10.75;3.72;;;9.30;99.90;;;;;;5034955;28;20091;-91
2024/01/05 06:42:37;;;;;;;8.15;4.03;;;9.30;99.90;;;;;;5041315;28;20017;-91
2024/01/05 06:45:03;;;;;;;9.30;3.58;;;9.30;99.90;;;;;;5034762;28;20025;-90
2024/01/05 06:47:29;;;;;;;8.05;3.78;;;9.30;99.90;;;;;;5044579;28;20032;-91
2024/01/05 06:49:54;;;;;;;12.70;3.80;;;9.30;99.90;;;;;;5048289;28;20063;-90
2024/01/05 06:52:20;;;;;;;6.38;3.58;;;9.30;99.90;;;;;;5048377;28;20052;-90
2024/01/05 06:54:45;;;;;;;7.97;3.88;;;9.30;99.90;;;;;;5043079;28;20052;-90
2024/01/05 06:57:11;;;;;;;8.65;4.22;;;9.30;99.90;;;;;;5042518;28;20064;-90
2024/01/05 06:59:37;;;;;;;8.15;3.90;;;9.30;99.90;;;;;;5054345;28;20033;-91
2024/01/05 07:02:03;;;;;;;4.20;3.03;;;9.30;99.90;;;;;;5046611;28;20025;-91
2024/01/05 07:04:29;;;;;;;6.90;3.70;;;9.30;99.90;;;;;;5032782;28;20052;-89
2024/01/05 07:06:54;;;;;;;6.10;3.75;;;9.30;99.90;;;;;;5039249;28;20060;-90
2024/01/05 07:09:20;;;;;;;7.18;3.45;;;9.30;99.90;;;;;;5051757;28;20082;-89
2024/01/05 07:11:45;;;;;;;10.15;3.42;;;9.30;99.90;;;;;;5041948;28;20091;-89
2024/01/05 07:14:11;;;;;;;7.53;3.53;;;9.30;99.90;;;;;;5043091;28;20028;-89
2024/01/05 07:16:37;;;;;;;9.07;3.22;;;9.30;99.90;;;;;;5041676;28;20482;-89
2024/01/05 07:19:02;;;;;;;6.63;3.78;;;9.30;99.90;;;;;;5041928;28;20049;-89
2024/01/05 07:21:28;;;;;;;7.85;3.42;;;9.30;99.90;;;;;;5049981;28;20024;-89
2024/01/05 07:23:53;;;;;;;16.45;3.42;;;9.30;99.90;;;;;;5032213;28;20025;-89
2024/01/05 07:26:22;;;;;;;5.35;3.35;;;9.30;99.90;;;;;;5033342;28;20037;-90
2024/01/05 07:28:48;;;;;;;5.03;3.20;;;9.30;99.90;;;;;;5058140;28;20026;-90
2024/01/05 07:31:13;;;;;;;6.07;3.22;;;9.30;99.90;;;;;;5049516;28;20078;-89
2024/01/05 07:33:39;;;;;;;6.60;3.05;;;9.30;99.90;;;;;;5052804;28;20104;-90
2024/01/05 07:36:05;;;;;;;6.75;3.10;;;9.30;99.90;;;;;;5051922;28;20494;-89
2024/01/05 07:38:37;;;;;;;7.53;2.92;;;9.30;99.90;;;;;;5048537;28;20017;-89
2024/01/05 07:41:03;;;;;;;9.05;3.33;;;9.30;99.90;;;;;;5038777;28;20025;-89
2024/01/05 07:43:30;;;;;;;5.97;3.05;;;9.30;99.90;;;;;;5054249;28;20117;-89
2024/01/05 07:45:56;;;;;;;4.03;2.83;;;9.30;99.90;;;;;;5051292;28;20514;-91
2024/01/05 07:48:22;;;;;;;7.82;3.03;;;9.30;99.90;;;;;;5047737;28;20017;-89
2024/01/05 07:50:48;;;;;;;4.72;3.15;;;9.30;99.90;;;;;;5038102;28;20771;-89
2024/01/05 07:53:13;;;;;;;9.93;3.65;;;9.30;99.90;;;;;;5043310;28;20490;-88
2024/01/05 07:55:39;;;;;;;3.65;2.70;;;9.30;99.90;;;;;;5035804;28;20031;-91
2024/01/05 07:58:05;;;;;;;4.57;2.70;;;9.30;99.90;;;;;;5041964;28;20107;-91
2024/01/05 08:00:31;;;;;;;6.57;3.22;;;9.30;99.90;;;;;;5036147;28;20024;-91
2024/01/05 08:02:57;;;;;;;6.90;3.33;;;9.30;99.90;;;;;;5037946;28;20060;-90
2024/01/05 08:05:23;;;;;;;8.25;3.05;;;9.30;99.90;;;;;;5038385;28;20048;-89
2024/01/05 08:07:49;;;;;;;4.32;3.03;;;9.30;99.90;;;;;;5036832;28;20475;-87
2024/01/05 08:10:15;;;;;;;8.07;3.47;;;9.30;99.90;;;;;;5037275;28;20087;-88
2024/01/05 08:12:40;;;;;;;9.02;3.38;;;9.30;99.90;;;;;;5039386;28;20026;-88
2024/01/05 08:15:06;;;;;;;5.10;2.10;;;9.30;99.90;;;;;;5040131;28;20029;-89
2024/01/05 08:17:32;;;;;;;4.65;3.33;;;9.30;99.90;;;;;;5044200;28;20033;-88
2024/01/05 08:19:57;;;;;;;7.43;3.45;;;9.30;99.90;;;;;;5041685;28;20459;-89
2024/01/05 08:22:25;;;;;;;5.43;2.83;;;9.30;99.90;;;;;;5046771;28;20024;-89
2024/01/05 08:24:50;;;;;;;5.60;2.83;;;9.30;99.90;;;;;;5050675;28;20095;-89
2024/01/05 08:27:16;;;;;;;5.60;3.08;;;9.30;99.90;;;;;;5051177;28;20132;-89
2024/01/05 08:29:42;;;;;;;5.85;2.97;;;9.30;99.90;;;;;;5046243;28;20024;-90
2024/01/05 08:32:07;;;;;;;7.88;3.25;;;9.30;99.90;;;;;;5050200;28;20029;-88
2024/01/05 08:34:33;;;;;;;6.63;3.30;;;9.40;99.90;;;;;;5049853;28;20029;-88
2024/01/05 08:36:58;;;;;;;8.38;3.05;;;9.30;99.90;;;;;;5033209;28;20168;-88
2024/01/05 08:39:24;;;;;;;6.72;3.03;;;9.40;99.90;;;;;;5048991;28;20103;-89
2024/01/05 08:41:50;;;;;;;7.35;3.25;;;9.30;99.90;;;;;;5051588;28;20078;-89
2024/01/05 08:44:15;;;;;;;8.63;3.50;;;9.40;99.90;;;;;;5038042;28;20532;-88
2024/01/05 08:46:41;;;;;;;5.80;2.97;;;9.40;99.90;;;;;;5050046;28;20021;-89
2024/01/05 08:49:07;;;;;;;8.68;2.92;;;9.40;99.90;;;;;;5035982;28;20029;-91
2024/01/05 08:51:32;;;;;;;6.30;3.40;;;9.40;99.90;;;;;;5049852;28;20029;-89
2024/01/05 08:54:01;;;;;;;3.97;3.08;;;9.40;99.90;;;;;;5050417;28;20028;-89
2024/01/05 08:56:27;;;;;;;4.45;2.35;;;9.40;99.90;;;;;;5042956;28;20033;-89
2024/01/05 08:58:52;;;;;;;6.82;2.60;;;9.40;99.90;;;;;;5041571;28;20071;-89
2024/01/05 09:01:18;;;;;;;5.82;2.63;;;9.40;99.90;;;;;;5045198;28;20084;-89
2024/01/05 09:03:43;;;;;;;5.55;2.58;;;9.40;99.90;;;;;;5049648;28;20021;-90
2024/01/05 09:06:09;;;;;;;5.50;2.70;;;9.40;99.90;;;;;;5040488;28;20108;-89
2024/01/05 09:08:35;;;;;;;8.65;2.08;;;9.40;99.90;;;;;;5037728;28;20022;-88
2024/01/05 09:11:00;;;;;;;8.18;3.10;;;9.40;99.90;;;;;;5042527;28;20104;-88
2024/01/05 09:13:26;;;;;;;6.45;2.30;;;9.40;99.90;;;;;;5038838;28;20591;-89
2024/01/05 09:15:52;;;;;;;3.13;2.10;;;9.40;99.90;;;;;;5046071;28;20067;-90
2024/01/05 09:18:17;;;;;;;5.93;2.30;;;9.50;99.90;;;;;;5029687;28;20692;-88
2024/01/05 09:20:43;;;;;;;5.05;2.75;;;9.40;99.90;;;;;;5046357;28;20028;-89
2024/01/05 09:23:08;;;;;;;4.97;2.17;;;9.50;99.90;;;;;;5038197;28;20030;-89
2024/01/05 09:25:34;;;;;;;7.50;2.17;;;9.50;99.90;;;;;;5040898;28;20032;-89
2024/01/05 09:28:01;;;;;;;3.20;2.55;;;9.50;99.90;;;;;;5047770;28;20025;-88
2024/01/05 09:30:26;;;;;;;6.03;2.08;;;9.50;99.90;;;;;;5044553;28;20032;-89
2024/01/05 09:32:52;;;;;;;4.00;2.05;;;9.50;99.90;;;;;;5042001;28;20036;-89
2024/01/05 09:35:18;;;;;;;6.93;2.42;;;9.50;99.90;;;;;;5043384;28;20391;-89
2024/01/05 09:37:43;;;;;;;5.57;2.28;;;9.50;99.90;;;;;;5052605;28;20025;-90
2024/01/05 09:40:12;;;;;;;5.40;2.05;;;9.50;99.90;;;;;;5053774;28;20048;-89
2024/01/05 09:42:40;;;;;;;5.82;2.25;;;9.50;99.90;;;;;;5053547;28;20028;-89
2024/01/05 09:45:10;;;;;;;7.50;2.25;;;9.50;99.90;;;;;;5048639;28;20041;-89
2024/01/05 09:47:37;;;;;;;3.80;1.95;;;9.50;99.90;;;;;;5050780;28;20058;-89
2024/01/05 09:50:04;;;;;;;2.42;1.70;;;9.50;99.90;;;;;;5052964;28;20060;-90
2024/01/05 09:52:30;;;;;;;2.30;1.60;;;9.50;99.90;;;;;;5052647;28;20025;-87
2024/01/05 09:54:56;;;;;;;4.03;1.67;;;9.50;99.90;;;;;;5043644;28;20087;-89
2024/01/05 09:57:24;;;;;;;2.28;1.85;;;9.50;99.90;;;;;;5047410;28;20021;-88
2024/01/05 09:59:50;;;;;;;5.88;1.77;;;9.50;99.90;;;;;;5045912;28;20017;-89
2024/01/05 10:02:26;;;;;;;7.53;1.73;;;9.50;99.90;;;;;;5045727;28;20026;-89
2024/01/05 10:04:54;;;;;;;5.25;2.10;;;9.50;99.90;;;;;;5046629;28;20129;-89
2024/01/05 10:07:21;;;;;;;3.53;1.88;;;9.50;99.90;;;;;;5057458;28;20117;-88
2024/01/05 10:09:51;;;;;;;2.30;1.77;;;9.50;99.90;;;;;;5062065;28;20024;-90
2024/01/05 10:12:17;;;;;;;;;;;9.50;99.90;;;;;;5047817;28;20045;-89
2024/01/05 10:14:44;;;;;;;5.65;1.65;;;9.50;99.90;;;;;;5036054;28;19927;-89
2024/01/05 10:17:10;;;;;;;5.43;1.80;;;9.50;99.90;;;;;;5049226;28;20031;-88
2024/01/05 10:19:37;;;;;;;7.72;2.30;;;9.50;99.90;;;;;;5044699;28;20032;-88
2024/01/05 10:22:12;;;;;;;2.88;1.42;;;9.50;99.90;;;;;;5048048;28;20032;-89
2024/01/05 10:24:39;;;;;;;3.30;1.90;;;9.50;99.90;;;;;;5044149;28;20044;-87
2024/01/05 10:27:14;;;;;;;3.15;1.73;;;9.50;99.90;;;;;;5048844;28;20158;-88
2024/01/05 10:29:44;;;;;;;4.60;2.25;;;9.50;99.90;;;;;;5043955;28;20025;-89
2024/01/05 10:32:11;;;;;;;;;;;9.50;99.90;;;;;;5038571;28;20584;-89
2024/01/05 10:34:37;;;;;;;3.92;1.75;;;9.40;99.90;;;;;;5033646;28;20379;-88
2024/01/05 10:37:06;;;;;;;4.82;1.88;;;9.50;99.90;;;;;;5045232;28;20025;-89
2024/01/05 10:39:32;;;;;;;5.18;1.75;;;9.50;99.90;;;;;;5051264;28;20394;-88
2024/01/05 10:42:27;;;;;;;2.10;1.50;;;9.50;99.90;;;;;;5044302;28;20025;-89
2024/01/05 10:44:57;;;;;;;8.20;1.70;;;9.50;99.90;;;;;;5044003;28;20136;-89
2024/01/05 10:47:28;;;;;;;5.85;1.80;;;9.50;99.90;;;;;;5050691;28;20029;-89
2024/01/05 10:49:55;;;;;;;10.38;1.95;;;9.40;99.90;;;;;;5047251;28;20044;-90
2024/01/05 10:52:27;;;;;;;4.90;1.92;;;9.50;99.90;;;;;;5052839;28;20150;-89
2024/01/05 10:54:53;;;;;;;4.05;1.80;;;9.40;99.90;;;;;;5039427;28;20017;-88
2024/01/05 10:57:20;;;;;;;4.20;1.50;;;9.40;99.90;;;;;;5050670;28;20476;-89
2024/01/05 10:59:47;;;;;;;7.07;1.83;;;9.40;99.90;;;;;;5034701;28;20027;-88
2024/01/05 11:02:20;;;;;;;4.63;1.80;;;9.40;99.90;;;;;;5047776;28;20028;-89
2024/01/05 11:04:52;;;;;;;3.55;1.48;;;9.40;99.90;;;;;;5066722;28;20025;-89
2024/01/05 11:07:18;;;;;;;6.75;1.92;;;9.40;99.90;;;;;;5050553;28;20132;-89
2024/01/05 11:09:57;;;;;;;3.70;2.00;;;9.40;99.90;;;;;;5051078;28;20082;-89
2024/01/05 11:12:45;;;;;;;2.92;1.77;;;9.40;99.90;;;;;;5045169;28;20030;-90
2024/01/05 11:15:30;;;;;;;4.03;1.85;;;9.40;99.90;;;;;;5053801;28;20037;-90
2024/01/05 11:18:28;;;;;;;4.90;1.73;;;9.40;99.90;;;;;;5040764;28;20390;-90
2024/01/05 11:20:53;;;;;;;2.90;1.85;;;9.40;99.90;;;;;;5055519;28;20049;-90
2024/01/05 11:23:21;;;;;;;3.65;1.80;;;9.40;99.90;;;;;;5053911;28;20036;-89
2024/01/05 11:25:48;;;;;;;5.15;1.85;;;9.40;99.90;;;;;;5044170;28;20024;-89
2024/01/05 11:28:49;;;;;;;4.03;2.00;;;9.40;99.90;;;;;;5060086;28;20026;-88
2024/01/05 11:31:47;;;;;;;6.80;1.77;;;9.40;99.90;;;;;;5050361;28;20059;-89
2024/01/05 11:34:31;;;;;;;3.47;1.95;;;9.40;99.90;;;;;;5055873;28;20063;-90
2024/01/05 11:36:57;;;;;;;4.28;2.00;;;9.40;99.90;;;;;;5053383;28;20033;-90
2024/01/05 11:39:45;;;;;;;4.32;1.75;;;9.40;99.90;;;;;;5057183;28;20542;-89
2024/01/05 11:42:29;;;;;;;3.17;1.90;;;9.40;99.90;;;;;;5069031;28;20025;-89
2024/01/05 11:44:55;;;;;;;3.95;2.22;;;9.40;99.90;;;;;;5052614;28;20020;-89
2024/01/05 11:47:40;;;;;;;3.95;1.77;;;9.40;99.90;;;;;;5067951;28;20031;-89
2024/01/05 11:50:26;;;;;;;7.03;1.95;;;9.40;99.90;;;;;;5050119;28;20059;-90
2024/01/05 11:53:14;;;;;;;5.70;2.10;;;9.40;99.90;;;;;;5053288;28;20036;-90
2024/01/05 11:55:47;;;;;;;3.78;2.15;;;9.40;99.90;;;;;;5052807;28;20115;-89
2024/01/05 11:58:21;;;;;;;6.00;2.00;;;9.40;99.90;;;;;;5065408;28;20687;-90
2024/01/05 12:00:48;;;;;;;8.68;2.30;;;9.40;99.90;;;;;;5076419;28;20179;-90
2024/01/05 12:03:14;;;;;;;6.93;2.45;;;9.40;99.90;;;;;;5069485;28;20021;-89
2024/01/05 12:05:40;;;;;;;7.25;2.47;;;9.40;99.90;;;;;;5053291;28;20040;-91
2024/01/05 12:08:10;;;;;;;5.70;2.10;;;9.40;99.90;;;;;;5037331;28;20017;-90
2024/01/05 12:10:37;;;;;;;5.13;2.67;;;9.40;99.90;;;;;;5036955;28;20056;-88
2024/01/05 12:13:03;;;;;;;8.85;3.28;;;9.40;99.90;;;;;;5042068;28;20022;-89
2024/01/05 12:15:28;;;;;;;7.53;3.10;;;9.40;99.90;;;;;;5060868;28;20025;-88
2024/01/05 12:18:08;;;;;;;9.10;3.25;;;9.40;99.90;;;;;;5052964;28;20078;-90
2024/01/05 12:20:34;;;;;;;6.72;3.10;;;9.40;99.90;;;;;;5049381;28;20025;-89
2024/01/05 12:22:59;;;;;;;7.80;2.90;;;9.40;99.90;;;;;;5044813;28;20104;-88
2024/01/05 12:25:26;;;;;;;6.68;3.22;;;9.40;99.90;;;;;;5048578;28;20550;-90
2024/01/05 12:27:52;;;;;;;6.90;2.72;;;9.50;99.90;;;;;;5037729;28;20505;-89
2024/01/05 12:30:18;;;;;;;3.63;2.17;;;9.40;99.90;;;;;;5036129;28;20059;-89
2024/01/05 12:32:46;;;;;;;6.43;3.38;;;9.40;99.90;;;;;;5041066;28;20111;-90
2024/01/05 12:35:12;;;;;;;11.73;2.85;;;9.40;99.90;;;;;;5035600;28;20021;-90
2024/01/05 12:37:50;;;;;;;2.53;2.00;;;9.40;99.90;;;;;;5039314;28;20036;-88
2024/01/05 12:40:20;;;;;;;5.75;2.90;;;9.40;99.90;;;;;;5041919;28;20025;-88
2024/01/05 12:42:46;;;;;;;5.35;2.35;;;9.40;99.90;;;;;;5041855;28;20051;-88
2024/01/05 12:45:12;;;;;;;4.53;2.45;;;9.40;99.90;;;;;;5049813;28;20017;-89
2024/01/05 12:47:37;;;;;;;4.45;2.38;;;9.40;99.90;;;;;;5049429;28;20092;-89
2024/01/05 12:50:03;;;;;;;5.72;2.47;;;9.40;99.90;;;;;;5050705;28;20570;-88
2024/01/05 12:52:49;;;;;;;6.78;2.70;;;9.40;99.90;;;;;;5046829;28;20096;-88
2024/01/05 12:55:35;;;;;;;6.30;1.98;;;9.50;99.90;;;;;;5055779;28;20047;-90
2024/01/05 12:58:04;;;;;;;5.18;2.05;;;9.80;99.90;;;;;;5059634;28;20506;-90